Airport View

Enter AWOS ICAO identifier for current METAR.

ex. KFNL

KUCY 142155Z AUTO 01006KT 3/4SM BR BKN003 SCT007 M01/M02 A3028 RMK A01 P0003

14 Nov 2018 22:04

Frequency: 135.325

Phone: 731-885-9161

Other Area AWOS: KPHT - KM25 - KDYR - KHZD

TAF AMD KPAH 142117Z 1421/1518 04012KT P6SM -SNPL FEW030 OVC050 FM142300 04012KT 2SM -SN OVC025 TEMPO 1423/1501 1SM -SN BR FM150100 03012KT 1SM -SN OVC015 FM150300 03009KT 1 1/2SM -SN BR OVC008 FM150800 01006KT 2SM -SN BR OVC008 PROB30 1509/1511 -FZRASN FM151300 32005KT 3SM BR OVC008 PROB30 1513/1518 -FZRASN